Terminal Aerodrome Forecast
Issued by NWS

Home | Current Version | Previous Version | Graphics & Text | Print | Product List | Glossary On
Versions: 1 2 3 4 5 6 7 8 9 10 11 12 13 14 15 16 17 18 19 20
000
FTUS41 KCLE 221100
TAFFDY
TAF
KFDY 221120Z 2212/2312 30005KT 4SM BR OVC010
      TEMPO 2212/2214 2SM -FZDZ BR OVC008
     FM221400 30005KT 6SM BR OVC015
     FM221600 30005KT P6SM OVC025
     FM230000 25005KT P6SM SCT025 OVC045
     FM230400 24003KT 6SM BR BKN025 OVC045
     FM230800 24003KT 4SM BR OVC025=

USA.gov is the U.S. government's official web portal to all federal, state and local government web resources and services.